Time;durP1;ratioP1;P1;durP2;ratioP2;P2;SDS_P1;SDS_P2;PMS_P1;PMS_P2;Temp;Humidity;BMP_temperature;BMP_pressure;BME280_temperature;BME280_humidity;BME280_pressure;Samples;Min_cycle;Max_cycle;Signal;HPM_P1;HPM_P2
2022/11/13 00:00:53;;;;;;;22.55;15.68;;;;;;;8.50;62.06;100556.69;5105948;28;20295;-70
2022/11/13 00:03:20;;;;;;;23.10;15.85;;;;;;;8.50;62.06;100554.06;5106733;28;20093;-70
2022/11/13 00:05:47;;;;;;;21.42;15.27;;;;;;;8.49;62.17;100563.75;5105878;28;20048;-71
2022/11/13 00:08:14;;;;;;;19.55;14.30;;;;;;;8.48;61.83;100555.88;5106683;28;20043;-71
2022/11/13 00:10:42;;;;;;;17.90;14.43;;;;;;;8.46;61.88;100557.69;5106525;28;20043;-71
2022/11/13 00:13:08;;;;;;;18.73;13.85;;;;;;;8.42;61.59;100556.91;5106845;28;20052;-70
2022/11/13 00:15:35;;;;;;;19.58;13.93;;;;;;;8.41;61.45;100571.03;5106603;28;20043;-71
2022/11/13 00:18:03;;;;;;;16.92;12.38;;;;;;;7.87;61.45;100494.16;5107065;28;20044;-71
2022/11/13 00:20:30;;;;;;;18.77;12.52;;;;;;;8.01;61.48;100500.78;5106726;28;20044;-71
2022/11/13 00:22:56;;;;;;;18.33;13.07;;;;;;;8.35;61.48;100568.56;5106347;28;20202;-71
2022/11/13 00:25:23;;;;;;;17.40;12.88;;;;;;;8.32;61.49;100566.88;5106679;28;20090;-71
2022/11/13 00:27:51;;;;;;;17.67;13.30;;;;;;;8.22;61.63;100568.00;5106664;28;20044;-71
2022/11/13 00:30:18;;;;;;;17.08;12.88;;;;;;;8.21;61.71;100568.91;5106037;28;20044;-71
2022/11/13 00:32:45;;;;;;;16.83;13.27;;;;;;;8.21;61.60;100570.69;5106497;28;20110;-71
2022/11/13 00:35:11;;;;;;;18.30;13.77;;;;;;;8.18;61.74;100560.22;5106430;28;20050;-71
2022/11/13 00:37:38;;;;;;;16.00;12.32;;;;;;;8.16;61.81;100560.25;5106447;28;20043;-70
2022/11/13 00:40:06;;;;;;;20.73;15.52;;;;;;;8.20;61.85;100563.69;5105297;28;20105;-71
2022/11/13 00:42:33;;;;;;;20.00;14.00;;;;;;;8.18;62.03;100565.50;5106368;28;20043;-71
2022/11/13 00:45:01;;;;;;;20.15;15.10;;;;;;;8.16;62.46;100556.75;5106329;28;20044;-70
2022/11/13 00:47:27;;;;;;;20.17;15.65;;;;;;;8.17;62.34;100559.34;5106273;28;20069;-71
2022/11/13 00:49:54;;;;;;;22.15;15.88;;;;;;;8.19;62.51;100554.03;5106422;28;20051;-71
2022/11/13 00:52:21;;;;;;;24.85;15.30;;;;;;;8.21;62.68;100552.22;5105894;28;20062;-71
2022/11/13 00:54:48;;;;;;;21.23;15.77;;;;;;;8.24;62.85;100554.78;5106161;28;20036;-71
2022/11/13 00:57:14;;;;;;;19.92;16.92;;;;;;;7.60;63.02;100438.53;5105024;28;20044;-70
2022/11/13 00:59:41;;;;;;;22.20;18.25;;;;;;;8.25;63.41;100554.72;5105482;28;20043;-70
2022/11/13 01:02:11;;;;;;;24.02;18.27;;;;;;;8.19;63.96;100546.09;5106216;28;20302;-71
2022/11/13 01:04:38;;;;;;;25.20;19.58;;;;;;;8.24;64.04;100555.63;5106162;28;20032;-70
2022/11/13 01:07:05;;;;;;;25.45;19.23;;;;;;;8.05;64.39;100520.06;5105936;28;20046;-70
2022/11/13 01:09:32;;;;;;;22.48;19.42;;;;;;;8.26;64.42;100558.22;5106302;28;20226;-70
2022/11/13 01:11:58;;;;;;;24.85;19.27;;;;;;;8.27;64.72;100565.25;5106024;28;20207;-71
2022/11/13 01:14:25;;;;;;;24.70;18.65;;;;;;;8.28;64.50;100554.66;5105846;28;20043;-71
2022/11/13 01:16:52;;;;;;;22.77;19.08;;;;;;;8.30;64.67;100554.59;5105712;28;20066;-70
2022/11/13 01:19:20;;;;;;;23.55;20.52;;;;;;;7.99;65.03;100499.09;5105642;28;20066;-70
2022/11/13 01:21:47;;;;;;;20.58;16.67;;;;;;;5.05;64.64;99996.22;5105306;28;20093;-70
2022/11/13 01:24:13;;;;;;;19.23;15.50;;;;;;;8.29;64.82;100539.66;5105759;28;20044;-71
2022/11/13 01:26:40;;;;;;;21.35;16.35;;;;;;;8.30;64.93;100541.41;5105464;28;20227;-71
2022/11/13 01:29:07;;;;;;;20.20;16.85;;;;;;;8.22;65.26;100549.53;5105843;28;20102;-70
2022/11/13 01:31:33;;;;;;;19.58;15.70;;;;;;;8.14;65.38;100534.78;5104636;28;20036;-71
2022/11/13 01:34:00;;;;;;;19.83;15.68;;;;;;;8.15;65.58;100536.53;5105530;28;20046;-71
2022/11/13 01:36:29;;;;;;;18.70;16.58;;;;;;;8.16;65.67;100548.81;5104589;28;20181;-71
2022/11/13 01:38:57;;;;;;;18.65;16.45;;;;;;;7.51;65.39;100427.34;5105418;28;20181;-70
2022/11/13 01:41:26;;;;;;;19.77;16.67;;;;;;;7.51;65.58;100435.28;5105395;28;20040;-71
2022/11/13 01:43:55;;;;;;;18.23;15.85;;;;;;;7.95;65.65;100511.50;5105623;28;20036;-71
2022/11/13 01:46:25;;;;;;;21.08;16.52;;;;;;;8.09;66.33;100541.97;5105540;28;20044;-70
2022/11/13 01:48:58;;;;;;;23.27;17.70;;;;;;;8.07;66.12;100547.28;5105121;28;20062;-70
2022/11/13 01:51:30;;;;;;;19.92;15.93;;;;;;;8.02;66.23;100546.53;5104444;28;20040;-70
2022/11/13 01:53:59;;;;;;;19.90;15.23;;;;;;;7.85;65.86;100515.31;5105595;28;20032;-69
2022/11/13 01:56:26;;;;;;;17.77;14.40;;;;;;;8.04;65.72;100542.09;5105520;28;20203;-70
2022/11/13 01:58:58;;;;;;;20.70;16.75;;;;;;;7.94;65.95;100522.13;5105522;28;20044;-71
2022/11/13 02:01:25;;;;;;;16.67;14.88;;;;;;;8.03;65.67;100533.31;5104622;28;20043;-71
2022/11/13 02:03:52;;;;;;;20.33;15.13;;;;;;;8.00;65.71;100529.88;5105043;28;20040;-70
2022/11/13 02:06:20;;;;;;;18.60;14.93;;;;;;;7.64;65.66;100498.25;5104573;28;20042;-70
2022/11/13 02:08:50;;;;;;;19.45;15.68;;;;;;;7.92;65.81;100523.94;5108512;28;20127;-71
2022/11/13 02:11:18;;;;;;;17.58;13.38;;;;;;;7.88;65.60;100530.19;5108086;28;20043;-71
2022/11/13 02:13:45;;;;;;;14.93;13.20;;;;;;;7.86;65.39;100529.38;5109245;28;20055;-71
2022/11/13 02:16:13;;;;;;;16.33;13.32;;;;;;;7.83;65.39;100530.31;5108102;28;20077;-71
2022/11/13 02:18:41;;;;;;;14.65;13.15;;;;;;;7.83;65.36;100527.66;5108056;28;20044;-70
2022/11/13 02:21:17;;;;;;;17.73;14.20;;;;;;;7.80;65.78;100526.88;5108847;28;20044;-70
2022/11/13 02:23:52;;;;;;;15.57;12.88;;;;;;;7.73;65.26;100522.66;5109033;28;20311;-70
2022/11/13 02:26:22;;;;;;;14.93;12.52;;;;;;;7.67;65.02;100529.81;5109043;28;20089;-71
2022/11/13 02:28:49;;;;;;;16.48;12.73;;;;;;;7.65;64.74;100520.22;5108871;28;20054;-71
2022/11/13 02:31:16;;;;;;;15.25;12.07;;;;;;;7.64;64.58;100523.75;5108800;28;20044;-71
2022/11/13 02:33:43;;;;;;;14.38;12.52;;;;;;;7.62;64.59;100518.50;5108863;28;20043;-71
2022/11/13 02:36:11;;;;;;;14.82;12.70;;;;;;;7.57;64.45;100527.44;5108774;28;20099;-70
2022/11/13 02:38:41;;;;;;;15.50;12.82;;;;;;;7.53;64.58;100509.97;5108379;28;20043;-71
2022/11/13 02:41:07;;;;;;;17.40;13.48;;;;;;;7.52;64.68;100514.38;5108666;28;20052;-70
2022/11/13 02:43:35;;;;;;;14.10;12.40;;;;;;;7.52;64.59;100517.00;5108876;28;20048;-71
2022/11/13 02:46:02;;;;;;;16.05;12.23;;;;;;;7.54;64.32;100519.59;5107751;28;20078;-70
2022/11/13 02:48:29;;;;;;;15.85;11.43;;;;;;;7.32;64.44;100485.81;5107976;28;20085;-71
2022/11/13 02:50:56;;;;;;;21.90;14.88;;;;;;;7.34;64.46;100494.56;5108046;28;20048;-71
2022/11/13 02:53:23;;;;;;;15.80;13.52;;;;;;;7.40;65.14;100519.06;5108467;28;20066;-70
2022/11/13 02:55:49;;;;;;;16.48;13.50;;;;;;;7.35;65.47;100521.81;5108156;28;20036;-70
2022/11/13 02:58:16;;;;;;;14.75;12.40;;;;;;;7.34;65.50;100515.69;5108091;28;20044;-70
2022/11/13 03:00:44;;;;;;;17.20;13.07;;;;;;;7.40;65.46;100509.38;5108346;28;20296;-70
2022/11/13 03:03:11;;;;;;;14.85;12.63;;;;;;;7.41;65.34;100510.25;5107165;28;20078;-70
2022/11/13 03:05:38;;;;;;;15.77;12.68;;;;;;;7.40;65.50;100517.31;5107288;28;20048;-71
2022/11/13 03:08:06;;;;;;;16.23;13.60;;;;;;;7.34;65.79;100510.41;5108136;28;20043;-70
2022/11/13 03:10:33;;;;;;;14.63;12.95;;;;;;;7.31;66.02;100509.56;5108134;28;20050;-70
2022/11/13 03:13:00;;;;;;;17.73;15.82;;;;;;;7.16;66.58;100509.94;5106973;28;20044;-71
2022/11/13 03:15:26;;;;;;;17.27;15.38;;;;;;;7.04;67.06;100508.44;5108001;28;20040;-71
2022/11/13 03:17:55;;;;;;;20.52;16.55;;;;;;;6.99;67.89;100513.81;5107741;28;20081;-71
2022/11/13 03:20:21;;;;;;;21.17;17.42;;;;;;;6.93;68.27;100507.81;5106729;28;20337;-70
2022/11/13 03:22:49;;;;;;;20.58;17.73;;;;;;;6.87;68.61;100506.19;5107774;28;20051;-71
2022/11/13 03:25:15;;;;;;;21.05;17.13;;;;;;;6.82;68.97;100512.44;5107494;28;20040;-70
2022/11/13 03:27:42;;;;;;;20.58;17.30;;;;;;;6.64;69.04;100474.16;5107519;28;20051;-70
2022/11/13 03:30:10;;;;;;;22.50;19.65;;;;;;;6.83;69.07;100503.63;5107707;28;20279;-70
2022/11/13 03:32:37;;;;;;;21.00;18.52;;;;;;;6.84;69.02;100497.47;5107696;28;20044;-70
2022/11/13 03:35:06;;;;;;;23.08;20.48;;;;;;;6.84;69.58;100494.84;5106590;28;20044;-70
2022/11/13 03:37:32;;;;;;;24.00;19.02;;;;;;;6.82;69.66;100505.41;5107420;28;20250;-71
2022/11/13 03:39:59;;;;;;;28.08;20.67;;;;;;;6.74;70.14;100491.50;5107265;28;20055;-70
2022/11/13 03:42:26;;;;;;;22.30;19.38;;;;;;;6.71;70.22;100488.94;5107237;28;20047;-70
2022/11/13 03:44:53;;;;;;;23.08;18.85;;;;;;;6.70;70.66;100481.94;5107424;28;20101;-69
2022/11/13 03:47:19;;;;;;;24.35;20.60;;;;;;;6.22;70.69;100423.25;5107445;28;20046;-69
2022/11/13 03:49:46;;;;;;;26.33;21.45;;;;;;;6.73;70.86;100482.72;5106135;28;20052;-69
2022/11/13 03:52:14;;;;;;;25.10;20.92;;;;;;;6.71;71.17;100474.00;5107089;28;20049;-69
2022/11/13 03:54:41;;;;;;;26.13;21.75;;;;;;;6.71;71.32;100479.25;5107313;28;20048;-69
2022/11/13 03:57:08;;;;;;;24.83;20.80;;;;;;;6.74;71.34;100476.56;5106226;28;20090;-69
2022/11/13 03:59:34;;;;;;;23.55;20.45;;;;;;;6.80;71.17;100470.31;5106889;28;20337;-70
2022/11/13 04:02:01;;;;;;;24.92;19.70;;;;;;;6.30;71.00;100395.88;5106912;28;20043;-70
2022/11/13 04:04:28;;;;;;;24.98;18.88;;;;;;;6.66;71.16;100431.06;5106766;28;20047;-70
2022/11/13 04:06:55;;;;;;;24.70;20.30;;;;;;;6.85;71.49;100470.22;5106780;28;20093;-70
2022/11/13 04:09:23;;;;;;;25.42;21.42;;;;;;;6.87;71.44;100471.06;5107300;28;20063;-70
2022/11/13 04:11:49;;;;;;;27.27;20.92;;;;;;;6.88;71.85;100471.00;5106894;28;20043;-70
2022/11/13 04:14:16;;;;;;;26.65;21.95;;;;;;;6.87;71.99;100476.31;5106667;28;20089;-70
2022/11/13 04:16:43;;;;;;;25.50;19.52;;;;;;;5.92;71.54;100303.69;5106586;28;20271;-70
2022/11/13 04:19:09;;;;;;;25.52;21.38;;;;;;;6.92;71.55;100467.41;5106811;28;20047;-70
2022/11/13 04:21:36;;;;;;;23.30;19.30;;;;;;;6.95;71.25;100463.84;5106526;28;20093;-70
2022/11/13 04:24:03;;;;;;;23.67;20.65;;;;;;;6.98;71.21;100467.28;5105754;28;20105;-70
2022/11/13 04:26:31;;;;;;;26.75;20.50;;;;;;;6.98;71.31;100459.38;5105896;28;20330;-69
2022/11/13 04:28:58;;;;;;;24.13;20.02;;;;;;;7.00;71.35;100460.19;5106349;28;20051;-70
2022/11/13 04:31:25;;;;;;;23.90;19.17;;;;;;;7.03;71.11;100462.75;5106784;28;20043;-70
2022/11/13 04:33:51;;;;;;;26.00;20.50;;;;;;;7.04;71.30;100461.84;5106295;28;20040;-70
2022/11/13 04:36:18;;;;;;;24.27;19.70;;;;;;;7.05;71.36;100466.22;5106499;28;20047;-70
2022/11/13 04:38:45;;;;;;;27.30;20.00;;;;;;;7.03;71.46;100462.75;5106419;28;20051;-70
2022/11/13 04:43:58;;;;;;;26.27;21.23;;;;;;;7.06;71.60;100456.56;5105993;28;20099;-70
2022/11/13 04:46:25;;;;;;;28.63;20.55;;;;;;;7.04;71.79;100464.50;5106011;28;20046;-70
2022/11/13 04:48:52;;;;;;;30.85;23.27;;;;;;;7.06;71.90;100453.91;5106044;28;20040;-71
2022/11/13 04:51:18;;;;;;;30.20;23.05;;;;;;;7.06;71.78;100446.88;5106258;28;20044;-70
2022/11/13 04:53:45;;;;;;;30.23;21.30;;;;;;;7.11;71.80;100461.72;5106216;28;20188;-70
2022/11/13 04:56:12;;;;;;;29.35;22.45;;;;;;;7.11;72.03;100454.66;5106120;28;20207;-70
2022/11/13 04:58:39;;;;;;;27.73;21.50;;;;;;;7.10;72.29;100454.72;5106152;28;20044;-70
2022/11/13 05:01:07;;;;;;;28.23;22.15;;;;;;;7.10;72.34;100459.97;5106150;28;20101;-70
2022/11/13 05:03:34;;;;;;;31.55;22.70;;;;;;;7.10;72.51;100455.56;5106414;28;20044;-70
2022/11/13 05:06:05;;;;;;;44.53;23.20;;;;;;;7.09;73.42;100460.88;5105995;28;20040;-69
2022/11/13 05:08:31;;;;;;;29.23;23.02;;;;;;;7.07;72.63;100459.16;5106092;28;20288;-70
2022/11/13 05:10:58;;;;;;;31.35;23.92;;;;;;;6.94;72.68;100431.34;5106041;28;20242;-70
2022/11/13 05:13:25;;;;;;;32.97;24.65;;;;;;;7.08;72.95;100457.38;5105722;28;20307;-70
2022/11/13 05:16:00;;;;;;;30.23;23.05;;;;;;;7.04;74.11;100456.59;5105952;28;20047;-71
2022/11/13 05:18:28;;;;;;;29.58;22.35;;;;;;;6.87;73.40;100436.78;5105950;28;20097;-70
2022/11/13 05:20:55;;;;;;;28.75;21.65;;;;;;;7.01;73.23;100468.97;5104806;28;20059;-69
2022/11/13 05:23:22;;;;;;;31.88;24.52;;;;;;;7.00;73.47;100467.22;5105791;28;20242;-70
2022/11/13 05:25:48;;;;;;;33.08;25.00;;;;;;;6.67;73.81;100418.78;5105771;28;20048;-70
2022/11/13 05:28:15;;;;;;;31.77;24.33;;;;;;;6.96;73.89;100476.97;5105534;28;20051;-70
2022/11/13 05:30:42;;;;;;;32.83;24.13;;;;;;;6.95;74.09;100469.97;5105770;28;20044;-70
2022/11/13 05:33:09;;;;;;;33.88;25.05;;;;;;;6.94;74.06;100470.88;5105207;28;20036;-70
2022/11/13 05:35:37;;;;;;;34.55;25.02;;;;;;;6.89;74.29;100467.47;5105800;28;20040;-70
2022/11/13 05:38:03;;;;;;;34.80;23.08;;;;;;;6.88;74.38;100464.88;5105611;28;20044;-70
2022/11/13 05:40:30;;;;;;;27.00;21.98;;;;;;;6.86;74.40;100461.41;5105991;28;20082;-70
2022/11/13 05:42:57;;;;;;;33.67;24.23;;;;;;;6.80;74.60;100457.16;5107617;28;20043;-69
2022/11/13 05:45:24;;;;;;;35.20;24.75;;;;;;;6.79;74.92;100458.00;5109715;28;20235;-70
2022/11/13 05:47:50;;;;;;;32.30;24.75;;;;;;;6.52;74.95;100433.13;5109407;28;20100;-70
2022/11/13 05:50:19;;;;;;;29.00;22.25;;;;;;;6.71;75.12;100467.84;5109119;28;20349;-70
2022/11/13 05:52:47;;;;;;;31.02;22.70;;;;;;;6.67;75.62;100472.31;5109704;28;20085;-70
2022/11/13 05:55:14;;;;;;;34.30;22.65;;;;;;;6.68;75.13;100470.56;5109646;28;20040;-70
2022/11/13 05:57:41;;;;;;;26.02;20.63;;;;;;;6.64;75.15;100471.53;5109891;28;20048;-69
2022/11/13 06:00:09;;;;;;;25.27;20.33;;;;;;;6.61;75.17;100468.94;5109499;28;20044;-70
2022/11/13 06:02:35;;;;;;;26.05;20.17;;;;;;;6.42;75.32;100450.91;5109546;28;20107;-71
2022/11/13 06:05:02;;;;;;;23.98;18.77;;;;;;;6.53;75.25;100470.88;5109620;28;20044;-72
2022/11/13 06:07:29;;;;;;;26.10;18.88;;;;;;;6.39;75.21;100450.09;5109396;28;20200;-71
2022/11/13 06:09:57;;;;;;;25.35;18.33;;;;;;;5.97;74.97;100388.66;5109359;28;20052;-72
2022/11/13 06:12:24;;;;;;;26.80;18.58;;;;;;;6.39;75.22;100471.16;5108432;28;20044;-72
2022/11/13 06:14:50;;;;;;;27.95;17.92;;;;;;;6.27;75.36;100480.19;5109171;28;20052;-72
2022/11/13 06:17:17;;;;;;;21.95;17.25;;;;;;;6.22;75.33;100471.50;5108931;28;20300;-72
2022/11/13 06:19:44;;;;;;;22.38;18.00;;;;;;;5.92;75.46;100425.59;5108253;28;20251;-71
2022/11/13 06:22:10;;;;;;;23.85;18.90;;;;;;;6.21;75.31;100476.78;5109095;28;20040;-71
2022/11/13 06:24:37;;;;;;;23.15;17.35;;;;;;;6.16;75.52;100481.28;5108791;28;20040;-71
2022/11/13 06:27:05;;;;;;;20.77;17.55;;;;;;;6.11;75.69;100486.63;5108972;28;20085;-71
2022/11/13 06:29:32;;;;;;;28.73;18.70;;;;;;;5.75;75.81;100435.56;5108664;28;20044;-71
2022/11/13 06:31:59;;;;;;;22.25;18.23;;;;;;;6.01;75.79;100485.06;5108575;28;20082;-71
2022/11/13 06:34:25;;;;;;;20.35;16.58;;;;;;;6.01;76.18;100488.56;5108306;28;20287;-70
2022/11/13 06:36:52;;;;;;;21.48;16.98;;;;;;;5.68;75.82;100437.44;5108805;28;20040;-70
2022/11/13 06:39:19;;;;;;;23.35;17.40;;;;;;;6.02;75.95;100490.31;5108768;28;20349;-70
2022/11/13 06:41:46;;;;;;;21.42;18.08;;;;;;;6.03;75.88;100486.78;5108213;28;20043;-70
2022/11/13 06:44:14;;;;;;;22.52;18.42;;;;;;;6.02;75.65;100487.69;5108445;28;20070;-71
2022/11/13 06:46:41;;;;;;;22.77;17.23;;;;;;;6.00;75.82;100484.22;5108548;28;20040;-70
2022/11/13 06:49:07;;;;;;;19.25;15.75;;;;;;;6.00;75.74;100486.84;5107364;28;20063;-71
2022/11/13 06:51:34;;;;;;;24.75;16.67;;;;;;;4.99;75.76;100318.63;5108557;28;20195;-72
2022/11/13 06:54:01;;;;;;;24.27;18.90;;;;;;;5.97;75.85;100476.38;5106901;28;20172;-70
2022/11/13 06:56:28;;;;;;;22.85;16.00;;;;;;;5.99;75.98;100487.72;5108209;28;20055;-70
2022/11/13 06:58:55;;;;;;;24.98;17.75;;;;;;;2.87;75.69;99967.84;5108595;28;20042;-70
2022/11/13 07:01:25;;;;;;;26.95;17.60;;;;;;;5.69;76.21;100467.25;5108031;28;20047;-70
2022/11/13 07:03:52;;;;;;;21.00;17.20;;;;;;;5.82;76.45;100481.91;5107163;28;20043;-69
2022/11/13 07:06:21;;;;;;;22.15;18.52;;;;;;;5.77;76.51;100475.88;5108117;28;20089;-70
2022/11/13 07:08:48;;;;;;;27.40;16.90;;;;;;;5.60;76.65;100472.66;5107873;28;20354;-71
2022/11/13 07:11:18;;;;;;;24.63;19.17;;;;;;;5.72;76.81;100485.59;5108156;28;20141;-70
2022/11/13 07:13:45;;;;;;;23.33;17.52;;;;;;;4.77;76.82;100328.59;5108099;28;20043;-69
2022/11/13 07:16:13;;;;;;;22.13;17.52;;;;;;;5.74;76.95;100489.06;5106912;28;20040;-70
2022/11/13 07:18:41;;;;;;;29.30;17.90;;;;;;;5.75;76.91;100483.78;5106815;28;20043;-70
2022/11/13 07:21:11;;;;;;;19.90;15.63;;;;;;;5.73;76.88;100482.94;5107621;28;20044;-69
2022/11/13 07:23:41;;;;;;;23.67;18.73;;;;;;;5.74;76.97;100489.06;5107796;28;20040;-71
2022/11/13 07:26:09;;;;;;;26.85;17.83;;;;;;;3.98;76.88;100183.69;5107283;28;20044;-70
2022/11/13 07:28:36;;;;;;;21.23;16.85;;;;;;;5.71;77.63;100487.38;5107740;28;20043;-70
2022/11/13 07:31:03;;;;;;;26.42;18.65;;;;;;;5.69;77.21;100478.63;5107741;28;20039;-69
2022/11/13 07:33:29;;;;;;;25.20;19.27;;;;;;;5.70;77.35;100484.75;5107407;28;20043;-70
2022/11/13 07:35:59;;;;;;;24.95;19.35;;;;;;;5.71;78.17;100490.00;5107571;28;20039;-69
2022/11/13 07:38:26;;;;;;;27.80;17.92;;;;;;;5.67;77.53;100482.19;5107564;28;20109;-69
2022/11/13 07:40:53;;;;;;;23.52;17.15;;;;;;;5.68;77.70;100479.53;5107798;28;20044;-70
2022/11/13 07:43:20;;;;;;;25.60;17.85;;;;;;;5.49;77.51;100450.94;5106375;28;20040;-70
2022/11/13 07:45:46;;;;;;;23.85;19.15;;;;;;;5.62;77.74;100481.41;5107937;28;20230;-70
2022/11/13 07:48:13;;;;;;;26.98;20.15;;;;;;;4.14;77.91;100223.69;5107775;28;20059;-70
2022/11/13 07:50:40;;;;;;;23.65;17.08;;;;;;;5.63;77.72;100470.84;5106951;28;20052;-70
2022/11/13 07:53:09;;;;;;;24.77;18.50;;;;;;;5.66;77.85;100483.06;5107092;28;20032;-70
2022/11/13 07:55:36;;;;;;;33.28;20.63;;;;;;;5.68;77.81;100481.28;5107562;28;20047;-70
2022/11/13 07:58:03;;;;;;;29.52;20.40;;;;;;;5.72;77.75;100482.97;5106954;28;20214;-70
2022/11/13 08:00:31;;;;;;;34.58;19.13;;;;;;;5.52;77.89;100445.63;5106556;28;20069;-70
2022/11/13 08:02:58;;;;;;;37.90;18.83;;;;;;;5.69;78.15;100489.16;5107115;28;20097;-69
2022/11/13 08:05:25;;;;;;;22.50;17.63;;;;;;;5.68;78.15;100491.81;5106322;28;20063;-70
2022/11/13 08:07:52;;;;;;;23.95;18.25;;;;;;;5.72;77.99;100501.38;5107060;28;20108;-69
2022/11/13 08:10:20;;;;;;;24.55;18.08;;;;;;;5.71;78.21;100499.66;5106953;28;20043;-70
2022/11/13 08:12:47;;;;;;;23.48;18.25;;;;;;;5.39;78.34;100442.34;5107000;28;20086;-70
2022/11/13 08:15:14;;;;;;;22.30;16.75;;;;;;;5.70;78.63;100500.53;5105580;28;20098;-70
2022/11/13 08:17:41;;;;;;;25.83;18.77;;;;;;;5.70;78.45;100506.66;5106826;28;20051;-70
2022/11/13 08:20:09;;;;;;;28.02;20.67;;;;;;;5.75;78.45;100490.81;5106758;28;20065;-70
2022/11/13 08:22:36;;;;;;;24.13;19.13;;;;;;;5.78;78.26;100493.38;5106292;28;20043;-70
2022/11/13 08:25:02;;;;;;;25.80;19.10;;;;;;;5.82;78.45;100497.69;5106664;28;20070;-70
2022/11/13 08:27:31;;;;;;;25.05;19.30;;;;;;;5.85;78.28;100492.38;5106211;28;20055;-70
2022/11/13 08:29:57;;;;;;;24.73;19.50;;;;;;;5.86;78.54;100494.13;5105392;28;20299;-70
2022/11/13 08:32:25;;;;;;;25.02;18.02;;;;;;;5.86;78.48;100488.84;5106546;28;20044;-70
2022/11/13 08:34:51;;;;;;;26.42;19.40;;;;;;;5.87;78.84;100505.50;5106521;28;20055;-69
2022/11/13 08:37:18;;;;;;;24.45;18.90;;;;;;;5.88;78.48;100494.09;5106447;28;20044;-70
2022/11/13 08:39:45;;;;;;;24.50;19.95;;;;;;;5.95;78.34;100493.09;5106151;28;20039;-70
2022/11/13 08:42:12;;;;;;;24.75;18.08;;;;;;;5.99;78.46;100495.63;5106158;28;20050;-70
2022/11/13 08:44:40;;;;;;;24.95;18.98;;;;;;;6.01;78.43;100491.22;5106284;28;20044;-70
2022/11/13 08:47:07;;;;;;;27.58;19.75;;;;;;;5.84;78.33;100464.34;5106144;28;20097;-70
2022/11/13 08:49:33;;;;;;;25.50;19.55;;;;;;;6.06;78.47;100491.13;5105260;28;20380;-69
2022/11/13 08:52:00;;;;;;;24.83;19.95;;;;;;;6.09;78.31;100501.59;5106408;28;20048;-69
2022/11/13 08:54:27;;;;;;;28.65;19.05;;;;;;;6.11;78.46;100497.16;5105859;28;20044;-69
2022/11/13 08:56:54;;;;;;;25.85;20.15;;;;;;;6.15;78.40;100509.38;5105759;28;20044;-70
2022/11/13 08:59:22;;;;;;;24.60;19.45;;;;;;;6.13;78.57;100497.13;5105695;28;20071;-70
2022/11/13 09:01:57;;;;;;;30.65;20.73;;;;;;;6.18;78.87;100504.06;5104828;28;20323;-70
2022/11/13 09:04:23;;;;;;;25.25;19.55;;;;;;;6.00;78.72;100463.16;5105704;28;20052;-70
2022/11/13 09:06:50;;;;;;;31.05;20.85;;;;;;;5.04;78.54;100287.88;5105678;28;20040;-69
2022/11/13 09:09:17;;;;;;;25.13;18.90;;;;;;;6.27;78.58;100498.59;5104656;28;20035;-70
2022/11/13 09:11:44;;;;;;;27.80;21.02;;;;;;;6.31;78.52;100488.88;5104573;28;20316;-70
2022/11/13 09:14:10;;;;;;;29.13;21.35;;;;;;;6.35;78.49;100488.78;5105262;28;20097;-70
2022/11/13 09:16:37;;;;;;;27.05;20.73;;;;;;;6.39;78.55;100487.84;5104756;28;20040;-70
2022/11/13 09:19:05;;;;;;;28.85;20.63;;;;;;;6.42;78.42;100489.53;5105234;28;20052;-71
2022/11/13 09:21:32;;;;;;;28.55;20.13;;;;;;;6.45;78.83;100493.88;5105950;28;20050;-71
2022/11/13 09:23:59;;;;;;;28.13;22.17;;;;;;;6.47;78.62;100492.06;5105448;28;20047;-70
2022/11/13 09:26:25;;;;;;;25.65;19.88;;;;;;;6.50;78.55;100495.50;5105890;28;20054;-71
2022/11/13 09:28:52;;;;;;;27.95;21.65;;;;;;;6.53;78.51;100484.91;5105421;28;20093;-71
2022/11/13 09:31:19;;;;;;;28.67;21.00;;;;;;;6.56;78.79;100489.25;5105456;28;20300;-70
2022/11/13 09:33:45;;;;;;;25.02;20.23;;;;;;;6.59;78.59;100486.56;5105984;28;20105;-72
2022/11/13 09:36:16;;;;;;;27.30;21.08;;;;;;;6.59;78.53;100491.81;5105929;28;20318;-70
2022/11/13 09:38:43;;;;;;;28.05;20.88;;;;;;;6.61;78.71;100483.00;5105386;28;20094;-70
2022/11/13 09:41:12;;;;;;;29.00;22.75;;;;;;;6.61;78.80;100493.53;5087853;28;20044;-71
2022/11/13 09:43:44;;;;;;;32.03;22.83;;;;;;;6.63;79.10;100491.72;5105917;28;20044;-71
2022/11/13 09:46:18;;;;;;;27.52;21.83;;;;;;;6.33;79.40;100434.44;5104338;28;20059;-71
2022/11/13 09:48:51;;;;;;;29.58;21.33;;;;;;;3.09;78.95;99885.47;5105892;28;20044;-70
2022/11/13 09:51:22;;;;;;;28.85;21.88;;;;;;;6.17;79.24;100415.44;5105264;28;20040;-70
2022/11/13 09:53:49;;;;;;;27.27;21.60;;;;;;;6.71;79.08;100481.03;5105561;28;20081;-70
2022/11/13 09:56:28;;;;;;;26.38;20.23;;;;;;;6.24;79.25;100398.63;5105959;28;20250;-70
2022/11/13 09:59:03;;;;;;;26.23;20.77;;;;;;;6.10;79.61;100388.38;5105316;28;20102;-70
2022/11/13 10:01:40;;;;;;;26.98;20.95;;;;;;;6.34;79.58;100394.91;5104950;28;20047;-71
2022/11/13 10:04:11;;;;;;;27.25;21.80;;;;;;;6.87;79.07;100477.19;5104224;28;20048;-71
2022/11/13 10:07:11;;;;;;;27.40;21.15;;;;;;;5.84;80.45;100276.69;5104028;28;20058;-70
2022/11/13 10:09:55;;;;;;;26.88;21.45;;;;;;;7.00;80.15;100464.59;5099896;28;20047;-70
2022/11/13 10:12:22;;;;;;;28.77;21.75;;;;;;;6.88;79.30;100433.25;5104261;28;20047;-71
2022/11/13 10:14:52;;;;;;;28.13;21.63;;;;;;;7.17;78.89;100466.84;5104202;28;20048;-70
2022/11/13 10:17:24;;;;;;;28.70;22.35;;;;;;;7.23;78.90;100451.75;5105323;28;20040;-70
2022/11/13 10:19:57;;;;;;;25.80;21.13;;;;;;;7.24;79.17;100457.88;5105332;28;20300;-70
2022/11/13 10:22:30;;;;;;;29.10;22.23;;;;;;;7.27;78.82;100457.81;5105341;28;20052;-71
2022/11/13 10:25:07;;;;;;;26.52;22.15;;;;;;;7.31;78.98;100441.00;5105164;28;20044;-70
2022/11/13 10:27:34;;;;;;;30.17;23.98;;;;;;;7.37;78.45;100431.22;5104839;28;20238;-70
2022/11/13 10:30:01;;;;;;;29.05;22.95;;;;;;;7.06;78.21;100370.44;5108861;28;20070;-70
2022/11/13 10:32:32;;;;;;;28.85;22.75;;;;;;;7.41;78.66;100416.19;5108797;28;20040;-71
2022/11/13 10:35:12;;;;;;;27.83;22.60;;;;;;;7.43;78.43;100409.09;5108796;28;20040;-70
2022/11/13 10:37:55;;;;;;;28.30;24.15;;;;;;;7.47;79.23;100409.88;5108726;28;20040;-71
2022/11/13 10:40:27;;;;;;;30.35;21.95;;;;;;;7.35;78.80;100379.41;5108705;28;20254;-71
2022/11/13 10:42:54;;;;;;;29.73;22.50;;;;;;;7.51;78.56;100400.97;5108303;28;20051;-71
2022/11/13 10:45:22;;;;;;;27.85;22.00;;;;;;;7.40;78.23;100360.81;5108535;28;20047;-71
2022/11/13 10:47:50;;;;;;;28.55;23.35;;;;;;;7.61;78.10;100376.09;5107926;28;20068;-70
2022/11/13 10:50:22;;;;;;;26.73;20.85;;;;;;;7.70;78.58;100373.19;5107991;28;20067;-70
2022/11/13 10:52:51;;;;;;;26.70;21.33;;;;;;;7.81;77.95;100381.69;5108085;28;20040;-70
2022/11/13 10:55:25;;;;;;;30.52;24.55;;;;;;;7.18;77.92;100265.56;5107328;28;20051;-71
2022/11/13 10:57:58;;;;;;;27.58;21.02;;;;;;;7.86;78.02;100378.91;5107916;28;20187;-70
2022/11/13 11:00:30;;;;;;;25.98;19.90;;;;;;;7.95;77.40;100368.97;5106988;28;20051;-70
2022/11/13 11:02:57;;;;;;;29.40;22.40;;;;;;;8.11;77.31;100360.59;5108388;28;20040;-71
2022/11/13 11:05:25;;;;;;;25.08;20.85;;;;;;;8.27;76.84;100361.88;5107980;28;20048;-69
2022/11/13 11:07:54;;;;;;;28.63;20.48;;;;;;;8.49;76.66;100351.53;5106999;28;20044;-71
2022/11/13 11:10:31;;;;;;;25.48;19.38;;;;;;;8.70;76.43;100348.22;5108084;28;20052;-71
2022/11/13 11:13:04;;;;;;;21.67;18.50;;;;;;;8.78;75.90;100330.34;5107503;28;20044;-72
2022/11/13 11:15:39;;;;;;;22.63;18.58;;;;;;;9.04;75.48;100337.41;5107195;28;20036;-71
2022/11/13 11:18:20;;;;;;;24.00;20.67;;;;;;;9.17;74.90;100336.09;5107594;28;20032;-70
2022/11/13 11:20:52;;;;;;;24.15;19.60;;;;;;;9.32;74.00;100334.72;5107579;28;20044;-71
2022/11/13 11:23:25;;;;;;;22.70;18.63;;;;;;;9.44;73.97;100323.75;5106625;28;20043;-71